Time;durP1;ratioP1;P1;durP2;ratioP2;P2;SDS_P1;SDS_P2;PMS_P1;PMS_P2;Temp;Humidity;BMP_temperature;BMP_pressure;BME280_temperature;BME280_humidity;BME280_pressure;Samples;Min_cycle;Max_cycle;Signal;HPM_P1;HPM_P2
2021/10/07 00:00:37;;;;;;;32.50;12.07;;;;;;;11.11;59.29;102187.42;1723285;81;21466;-58
2021/10/07 00:03:04;;;;;;;25.32;11.75;;;;;;;11.12;59.37;102177.99;1728510;81;20980;-58
2021/10/07 00:05:31;;;;;;;29.45;12.53;;;;;;;11.11;58.84;102184.27;1719405;81;21027;-59
2021/10/07 00:07:58;;;;;;;34.98;11.88;;;;;;;11.14;58.99;102177.52;1708454;81;21102;-59
2021/10/07 00:10:25;;;;;;;30.48;11.97;;;;;;;11.13;59.16;102170.37;1718771;81;21079;-59
2021/10/07 00:12:53;;;;;;;33.15;12.70;;;;;;;11.09;58.91;102172.67;1709847;83;22020;-60
2021/10/07 00:15:20;;;;;;;35.63;12.05;;;;;;;11.03;59.19;102179.01;1722026;83;21017;-60
2021/10/07 00:17:57;;;;;;;38.55;13.95;;;;;;;11.00;59.64;102174.16;1733415;81;21121;-59
2021/10/07 00:20:23;;;;;;;28.30;13.38;;;;;;;10.98;59.71;102197.45;1732387;80;21109;-58
2021/10/07 00:22:50;;;;;;;33.63;12.98;;;;;;;10.96;60.75;102165.72;1723893;80;20958;-59
2021/10/07 00:25:17;;;;;;;32.45;13.22;;;;;;;10.95;60.09;102185.42;1733349;81;21136;-59
2021/10/07 00:27:44;;;;;;;32.17;12.93;;;;;;;10.96;60.51;102187.19;1730874;81;21077;-59
2021/10/07 00:30:18;;;;;;;37.93;13.30;;;;;;;10.95;60.57;102169.31;1706674;81;21618;-59
2021/10/07 00:40:38;;;;;;;30.62;12.03;;;;;;;10.94;60.33;102148.72;1713292;81;21058;-59
2021/10/07 00:43:05;;;;;;;35.85;12.30;;;;;;;10.89;62.10;102159.08;1721084;80;21041;-59
2021/10/07 00:45:33;;;;;;;34.43;11.88;;;;;;;10.85;63.99;102181.50;1724694;81;21034;-59
2021/10/07 00:48:00;;;;;;;37.03;11.80;;;;;;;10.84;64.38;102162.28;1734208;80;21046;-59
2021/10/07 00:50:27;;;;;;;42.60;11.43;;;;;;;10.77;64.19;102164.63;1734799;81;21503;-59
2021/10/07 00:52:54;;;;;;;26.50;10.43;;;;;;;10.70;64.18;102157.54;1727815;82;21036;-59
2021/10/07 00:55:21;;;;;;;27.07;10.75;;;;;;;10.63;63.94;102159.88;1726250;81;22244;-59
2021/10/07 00:57:48;;;;;;;37.13;10.93;;;;;;;10.57;64.90;102184.54;1722278;81;21076;-59
2021/10/07 01:00:15;;;;;;;24.10;10.60;;;;;;;10.55;63.75;102182.77;1710934;80;21000;-59
2021/10/07 01:02:42;;;;;;;26.27;10.30;;;;;;;10.54;64.29;102177.88;1733659;81;21068;-59
2021/10/07 01:05:09;;;;;;;24.82;9.73;;;;;;;10.55;63.84;102154.17;1731091;81;21093;-59
2021/10/07 01:07:36;;;;;;;23.65;9.78;;;;;;;10.55;63.61;102164.00;1733030;81;21655;-59
2021/10/07 01:10:04;;;;;;;35.40;10.00;;;;;;;10.53;64.16;102196.22;1720582;81;21050;-59
2021/10/07 01:12:31;;;;;;;30.08;10.90;;;;;;;10.51;64.18;102171.64;1719658;83;20976;-59
2021/10/07 01:14:58;;;;;;;33.48;10.43;;;;;;;10.51;63.70;102151.53;1692285;83;21147;-59
2021/10/07 01:17:28;;;;;;;33.83;10.10;;;;;;;10.52;65.57;102189.08;1698122;83;21501;-59
2021/10/07 01:19:58;;;;;;;24.87;8.28;;;;;;;10.52;66.24;102163.60;1717421;81;21353;-59
2021/10/07 01:22:27;;;;;;;26.80;9.10;;;;;;;10.57;65.80;102156.38;1716069;81;21119;-59
2021/10/07 01:24:55;;;;;;;23.15;8.28;;;;;;;10.60;66.40;102175.11;1711200;83;21103;-59
2021/10/07 01:27:25;;;;;;;27.00;8.75;;;;;;;10.58;65.49;102163.52;1698118;82;21562;-59
2021/10/07 01:29:56;;;;;;;34.23;9.53;;;;;;;10.56;65.59;102154.60;1699170;83;21084;-59
2021/10/07 01:32:23;;;;;;;30.92;9.88;;;;;;;10.53;64.87;102166.71;1719332;82;21029;-58
2021/10/07 01:34:50;;;;;;;28.35;8.30;;;;;;;10.54;65.99;102156.86;1694376;81;21035;-58
2021/10/07 01:37:17;;;;;;;27.50;7.50;;;;;;;10.52;66.87;102155.55;1696084;83;20990;-58
2021/10/07 01:39:44;;;;;;;18.95;7.00;;;;;;;10.50;67.47;102161.39;1724574;81;21038;-59
2021/10/07 01:42:11;;;;;;;24.47;7.20;;;;;;;10.46;68.21;102164.98;1730045;81;21519;-59
2021/10/07 01:44:38;;;;;;;22.93;7.40;;;;;;;10.44;68.13;102188.25;1728115;81;21095;-59
2021/10/07 01:47:05;;;;;;;32.65;7.90;;;;;;;10.41;68.38;102177.13;1729485;81;21123;-60
2021/10/07 01:49:33;;;;;;;19.00;6.75;;;;;;;10.37;68.07;102173.12;1733020;81;21104;-58
2021/10/07 01:52:00;;;;;;;27.95;7.70;;;;;;;10.32;67.95;102178.09;1743867;80;21118;-60
2021/10/07 01:54:27;;;;;;;21.50;6.80;;;;;;;10.29;68.78;102162.04;1694518;83;21072;-58
2021/10/07 01:56:54;;;;;;;21.20;7.05;;;;;;;10.29;69.18;102175.87;1692712;82;21030;-58
2021/10/07 01:59:21;;;;;;;18.55;6.17;;;;;;;10.29;68.81;102168.74;1733447;81;21161;-59
2021/10/07 02:01:48;;;;;;;27.20;6.87;;;;;;;10.28;69.99;102160.27;1727512;82;21105;-59
2021/10/07 02:04:15;;;;;;;26.90;7.78;;;;;;;10.26;69.72;102163.39;1685317;83;21887;-59
2021/10/07 02:06:42;;;;;;;26.68;6.55;;;;;;;10.24;71.20;102170.56;1732354;80;21103;-59
2021/10/07 02:09:09;;;;;;;27.80;7.17;;;;;;;10.21;70.06;102167.92;1718647;82;21096;-59
2021/10/07 02:11:38;;;;;;;19.82;6.17;;;;;;;10.19;70.88;102172.41;1719381;80;20985;-58
2021/10/07 02:14:05;;;;;;;34.10;6.55;;;;;;;10.15;70.05;102168.86;1725211;81;21077;-59
2021/10/07 02:16:33;;;;;;;18.40;6.47;;;;;;;10.12;70.38;102164.01;1734478;80;21286;-59
2021/10/07 02:19:00;;;;;;;25.85;6.25;;;;;;;10.06;69.82;102172.99;1712481;81;21115;-59
2021/10/07 02:21:27;;;;;;;22.02;7.45;;;;;;;10.02;71.04;102160.53;1730587;81;21388;-59
2021/10/07 02:23:54;;;;;;;28.47;8.15;;;;;;;9.97;71.53;102187.36;1722069;81;21561;-59
2021/10/07 02:26:21;;;;;;;24.02;6.05;;;;;;;9.94;71.37;102187.83;1716064;81;21879;-59
2021/10/07 02:28:48;;;;;;;17.70;5.50;;;;;;;9.90;69.63;102191.02;1733883;82;21997;-60
2021/10/07 02:31:15;;;;;;;38.60;6.97;;;;;;;9.87;71.44;102188.37;1729480;81;21011;-59
2021/10/07 02:33:42;;;;;;;25.92;6.62;;;;;;;9.88;71.46;102179.42;1733877;81;21010;-58
2021/10/07 02:36:09;;;;;;;23.73;7.83;;;;;;;9.89;70.77;102157.09;1735332;81;21442;-58
2021/10/07 02:38:37;;;;;;;26.65;7.12;;;;;;;9.88;70.94;102164.22;1726440;81;21101;-59
2021/10/07 02:41:05;;;;;;;26.70;6.90;;;;;;;9.87;71.33;102170.95;1697918;81;39594;-59
2021/10/07 02:43:32;;;;;;;22.00;6.00;;;;;;;9.86;71.41;102205.34;1703232;82;21000;-59
2021/10/07 02:45:59;;;;;;;25.30;6.33;;;;;;;9.84;71.00;102166.97;1728779;81;21095;-59
2021/10/07 02:48:26;;;;;;;13.68;5.75;;;;;;;9.83;70.74;102174.53;1728566;81;21604;-59
2021/10/07 02:50:53;;;;;;;18.25;6.62;;;;;;;9.80;71.94;102179.49;1725380;81;21306;-59
2021/10/07 02:53:22;;;;;;;16.65;5.78;;;;;;;9.79;72.35;102170.11;1727397;81;21134;-59
2021/10/07 02:55:50;;;;;;;28.15;6.12;;;;;;;9.75;73.19;102178.18;1735613;81;21050;-59
2021/10/07 02:58:18;;;;;;;25.62;6.05;;;;;;;9.71;72.47;102192.51;1736675;81;20998;-59
2021/10/07 03:00:45;;;;;;;23.73;5.80;;;;;;;9.68;72.66;102187.18;1730473;81;21124;-59
2021/10/07 03:03:12;;;;;;;27.87;5.95;;;;;;;9.65;72.22;102209.97;1728565;83;20980;-59
2021/10/07 03:05:39;;;;;;;26.45;5.45;;;;;;;9.62;72.59;102184.56;1731589;82;21685;-59
2021/10/07 03:08:06;;;;;;;31.40;5.95;;;;;;;9.63;72.99;102180.08;1732409;82;21656;-59
2021/10/07 03:10:33;;;;;;;19.67;5.08;;;;;;;9.60;73.22;102173.84;1727536;81;21115;-59
2021/10/07 03:13:02;;;;;;;17.05;5.70;;;;;;;9.60;73.90;102180.98;1714112;81;21023;-58
2021/10/07 03:15:29;;;;;;;23.98;5.72;;;;;;;9.56;72.34;102185.92;1735079;81;21106;-59
2021/10/07 03:17:56;;;;;;;21.77;6.00;;;;;;;9.55;73.60;102190.84;1735068;81;21121;-59
2021/10/07 03:20:23;;;;;;;29.42;5.58;;;;;;;9.53;73.57;102212.73;1727117;81;21068;-59
2021/10/07 03:22:50;;;;;;;27.80;5.28;;;;;;;9.48;73.00;102185.11;1679035;83;21138;-60
2021/10/07 03:25:17;;;;;;;15.43;5.12;;;;;;;9.47;73.63;102184.20;1734976;81;20971;-60
2021/10/07 03:27:45;;;;;;;17.60;4.97;;;;;;;9.45;73.39;102194.94;1734578;81;21138;-59
2021/10/07 03:30:12;;;;;;;34.95;5.20;;;;;;;9.42;73.03;102194.06;1712627;81;21102;-59
2021/10/07 03:32:41;;;;;;;17.87;4.58;;;;;;;9.39;73.25;102196.30;1711534;82;21064;-58
2021/10/07 03:35:10;;;;;;;25.77;5.15;;;;;;;9.36;73.35;102190.97;1681337;82;21500;-59
2021/10/07 03:37:38;;;;;;;19.92;5.10;;;;;;;9.34;74.68;102195.45;1689342;82;21308;-60
2021/10/07 03:40:10;;;;;;;21.85;5.50;;;;;;;9.31;73.76;102202.16;1692437;82;21077;-59
2021/10/07 03:42:37;;;;;;;18.90;4.65;;;;;;;9.29;74.11;102226.72;1707579;82;21190;-60
2021/10/07 03:45:06;;;;;;;15.68;4.17;;;;;;;9.28;73.71;102203.53;1727324;82;21528;-60
2021/10/07 03:47:33;;;;;;;19.15;5.03;;;;;;;9.30;72.95;102199.05;1705566;82;21038;-60
2021/10/07 03:50:00;;;;;;;17.00;4.35;;;;;;;9.27;72.62;102192.38;1695037;82;21004;-59
2021/10/07 03:52:28;;;;;;;26.85;4.83;;;;;;;9.26;73.67;102212.02;1683675;83;21575;-58
2021/10/07 03:54:58;;;;;;;18.92;4.00;;;;;;;9.22;73.46;102222.31;1682344;83;21778;-59
2021/10/07 03:57:26;;;;;;;19.32;4.20;;;;;;;9.17;72.83;102190.21;1675773;83;21081;-59
2021/10/07 03:59:53;;;;;;;18.98;4.90;;;;;;;9.11;72.46;102214.34;1691274;83;21109;-59
2021/10/07 04:02:20;;;;;;;28.38;4.60;;;;;;;9.06;73.54;102220.14;1697858;83;21060;-59
2021/10/07 04:04:47;;;;;;;15.40;4.60;;;;;;;9.03;73.63;102209.89;1698128;83;21009;-59
2021/10/07 04:07:15;;;;;;;21.48;4.30;;;;;;;9.03;74.29;102214.38;1657965;84;21205;-59
2021/10/07 04:09:42;;;;;;;14.78;3.92;;;;;;;9.01;75.04;102221.05;1681709;83;21596;-59
2021/10/07 04:12:11;;;;;;;14.73;4.42;;;;;;;9.01;74.92;102222.86;1693820;82;21445;-60
2021/10/07 04:14:38;;;;;;;33.48;4.72;;;;;;;8.99;73.93;102220.17;1700639;82;21510;-58
2021/10/07 04:17:05;;;;;;;17.62;4.33;;;;;;;8.99;75.28;102224.19;1706515;82;21001;-59
2021/10/07 04:19:32;;;;;;;22.55;4.42;;;;;;;9.00;75.17;102230.45;1690888;84;21407;-59
2021/10/07 04:21:59;;;;;;;26.33;4.42;;;;;;;9.03;75.45;102217.05;1704838;82;21134;-60
2021/10/07 04:24:26;;;;;;;14.23;4.17;;;;;;;9.04;74.60;102212.14;1704718;82;21100;-59
2021/10/07 04:26:53;;;;;;;18.25;4.65;;;;;;;9.06;76.06;102222.81;1698587;82;21082;-59
2021/10/07 04:29:20;;;;;;;18.85;4.80;;;;;;;9.08;74.08;102220.58;1681362;84;21125;-58
2021/10/07 04:31:48;;;;;;;19.02;4.25;;;;;;;9.10;74.44;102225.48;1702563;82;21584;-58
2021/10/07 04:34:15;;;;;;;17.80;4.25;;;;;;;9.21;75.00;102220.53;1675034;82;21080;-58
2021/10/07 04:36:42;;;;;;;18.23;4.28;;;;;;;9.30;74.10;102248.57;1722699;82;21093;-60
2021/10/07 04:39:09;;;;;;;23.60;4.78;;;;;;;9.34;73.44;102262.37;1727499;82;21114;-59
2021/10/07 04:41:37;;;;;;;26.95;4.72;;;;;;;9.36;74.70;102211.05;1711300;83;21043;-59
2021/10/07 04:44:05;;;;;;;16.40;3.90;;;;;;;9.38;75.10;102248.06;1697551;83;21204;-59
2021/10/07 04:46:32;;;;;;;16.07;4.40;;;;;;;9.42;74.80;102220.41;1716700;82;21089;-59
2021/10/07 04:48:59;;;;;;;23.57;5.10;;;;;;;9.45;74.76;102228.41;1715720;81;20998;-59
2021/10/07 04:51:26;;;;;;;20.72;4.45;;;;;;;9.50;74.54;102234.17;1724620;82;20990;-59
2021/10/07 04:53:53;;;;;;;14.20;4.03;;;;;;;9.55;73.82;102232.34;1734685;80;21074;-62
2021/10/07 04:56:20;;;;;;;22.82;4.12;;;;;;;9.60;73.70;102237.21;1731243;81;21089;-61
2021/10/07 04:58:47;;;;;;;24.07;4.78;;;;;;;9.67;74.11;102226.92;1713194;81;21050;-59
2021/10/07 05:01:17;;;;;;;17.85;4.08;;;;;;;9.69;73.27;102210.38;1717258;82;21041;-59
2021/10/07 05:03:43;;;;;;;19.07;4.85;;;;;;;9.69;72.78;102237.16;1733346;81;21127;-58
2021/10/07 05:06:11;;;;;;;13.28;3.80;;;;;;;9.69;72.50;102270.64;1722708;83;21087;-58
2021/10/07 05:08:38;;;;;;;22.15;4.17;;;;;;;9.70;72.48;102240.72;1731917;81;21731;-60
2021/10/07 05:11:05;;;;;;;18.87;4.30;;;;;;;9.70;72.72;102226.89;1719207;81;21035;-58
2021/10/07 05:13:33;;;;;;;15.50;4.85;;;;;;;9.71;73.19;102225.98;1698407;83;21633;-59
2021/10/07 05:16:02;;;;;;;21.60;4.28;;;;;;;9.72;72.04;102250.97;1740436;80;21124;-60
2021/10/07 05:18:29;;;;;;;22.27;4.08;;;;;;;9.72;71.46;102217.48;1724176;81;21604;-61
2021/10/07 05:20:56;;;;;;;15.65;3.90;;;;;;;9.67;70.17;102263.08;1730098;81;21534;-59
2021/10/07 05:23:23;;;;;;;20.43;4.22;;;;;;;9.63;70.62;102238.56;1734698;80;21448;-60
2021/10/07 05:25:50;;;;;;;14.00;3.92;;;;;;;9.66;71.47;102231.84;1724533;81;21056;-60
2021/10/07 05:28:17;;;;;;;17.27;4.50;;;;;;;9.66;71.83;102234.52;1727470;81;21026;-59
2021/10/07 05:30:44;;;;;;;13.93;4.67;;;;;;;9.67;70.40;102230.94;1733691;81;21452;-59
2021/10/07 05:33:11;;;;;;;17.35;3.45;;;;;;;9.70;71.09;102225.55;1711505;80;21122;-59
2021/10/07 05:35:38;;;;;;;25.32;5.05;;;;;;;9.72;70.12;102239.81;1720851;81;21020;-59
2021/10/07 05:38:06;;;;;;;24.27;4.50;;;;;;;9.70;70.03;102246.98;1732518;82;21062;-60
2021/10/07 05:40:33;;;;;;;23.77;4.10;;;;;;;9.69;70.01;102221.09;1719689;81;21124;-60
2021/10/07 05:43:00;;;;;;;16.73;4.10;;;;;;;9.67;69.36;102241.65;1728109;81;21059;-59
2021/10/07 05:45:27;;;;;;;25.62;4.72;;;;;;;9.66;69.86;102238.53;1712160;81;21134;-60
2021/10/07 05:47:55;;;;;;;18.95;4.35;;;;;;;9.67;70.20;102234.05;1719948;81;21499;-59
2021/10/07 05:50:22;;;;;;;22.98;4.12;;;;;;;9.66;69.66;102233.17;1730341;82;22212;-60
2021/10/07 05:52:49;;;;;;;21.07;4.65;;;;;;;9.70;69.96;102264.82;1723716;81;21738;-60
2021/10/07 05:55:16;;;;;;;21.40;4.33;;;;;;;9.81;70.63;102262.97;1714872;81;21095;-60
2021/10/07 05:57:43;;;;;;;24.23;4.60;;;;;;;9.90;69.83;102276.75;1720540;81;21509;-59
2021/10/07 06:00:12;;;;;;;24.57;4.17;;;;;;;9.91;69.57;102267.81;1728560;81;21050;-60
2021/10/07 06:02:40;;;;;;;16.40;3.98;;;;;;;9.87;68.96;102311.60;1720262;81;21086;-59
2021/10/07 06:05:11;;;;;;;17.55;4.05;;;;;;;9.82;68.71;102265.19;1717346;82;21034;-59
2021/10/07 06:07:38;;;;;;;17.32;4.30;;;;;;;9.73;69.28;102276.41;1711410;81;21022;-60
2021/10/07 06:10:07;;;;;;;34.08;5.80;;;;;;;9.70;69.26;102279.12;1723399;80;21125;-60
2021/10/07 06:12:34;;;;;;;22.42;4.78;;;;;;;9.71;69.36;102277.31;1717442;81;21079;-60
2021/10/07 06:15:01;;;;;;;30.70;4.70;;;;;;;9.70;69.70;102280.45;1720629;82;21602;-59
2021/10/07 06:17:30;;;;;;;13.32;4.40;;;;;;;9.73;70.32;102305.88;1719503;81;21062;-59
2021/10/07 06:20:04;;;;;;;13.75;4.00;;;;;;;9.78;69.69;102282.19;1720555;81;21199;-60
2021/10/07 06:22:26;;;;;;;22.37;4.47;;;;;;;9.82;69.36;102266.52;1722424;80;21568;-60
2021/10/07 06:24:56;;;;;;;18.62;4.22;;;;;;;9.82;69.31;102298.67;1720855;80;21109;-59
2021/10/07 06:27:23;;;;;;;23.30;4.72;;;;;;;9.81;69.36;102280.81;1714533;80;21047;-59
2021/10/07 06:29:52;;;;;;;20.12;3.95;;;;;;;9.81;69.17;102262.97;1723589;80;21137;-62
2021/10/07 06:32:19;;;;;;;18.32;4.70;;;;;;;9.84;70.05;102262.07;1720576;81;21043;-61
2021/10/07 06:34:47;;;;;;;23.07;4.45;;;;;;;9.86;68.46;102277.68;1719344;80;21165;-62
2021/10/07 06:37:14;;;;;;;19.25;4.83;;;;;;;9.85;69.01;102308.05;1713498;81;21051;-63
2021/10/07 06:39:42;;;;;;;18.20;4.42;;;;;;;9.84;69.37;102258.05;1720144;81;21022;-68
2021/10/07 06:42:08;;;;;;;19.52;4.08;;;;;;;9.92;69.89;102270.02;1723288;81;21138;-63
2021/10/07 06:44:36;;;;;;;17.85;5.10;;;;;;;10.03;69.04;102293.15;1719763;80;21172;-64
2021/10/07 06:47:03;;;;;;;16.07;3.67;;;;;;;10.13;68.31;102291.75;1726940;81;21130;-65
2021/10/07 06:49:32;;;;;;;21.33;4.28;;;;;;;10.18;68.50;102307.34;1727546;80;21021;-66
2021/10/07 06:51:59;;;;;;;25.32;4.67;;;;;;;10.16;67.71;102270.28;1703238;81;21039;-64
2021/10/07 06:54:28;;;;;;;20.50;5.08;;;;;;;10.16;68.55;102291.25;1693514;82;21781;-65
2021/10/07 06:56:55;;;;;;;18.75;4.03;;;;;;;10.22;67.53;102263.52;1728503;80;21077;-65
2021/10/07 06:59:22;;;;;;;20.50;4.42;;;;;;;10.17;67.70;102258.66;1723675;80;21889;-66
2021/10/07 07:01:50;;;;;;;26.10;5.12;;;;;;;10.15;69.17;102251.95;1722180;80;21541;-64
2021/10/07 07:04:17;;;;;;;12.70;4.37;;;;;;;10.18;68.31;102284.55;1721526;80;21019;-66
2021/10/07 07:06:46;;;;;;;25.00;4.95;;;;;;;10.19;68.29;102280.97;1725697;80;21045;-65
2021/10/07 07:09:13;;;;;;;22.02;4.80;;;;;;;10.15;67.55;102247.94;1722918;81;21065;-65
2021/10/07 07:11:41;;;;;;;16.50;4.90;;;;;;;10.09;68.46;102257.84;1723279;81;21140;-65
2021/10/07 07:14:08;;;;;;;27.82;4.85;;;;;;;10.04;67.87;102272.61;1716161;81;21130;-65
2021/10/07 07:16:35;;;;;;;21.50;4.42;;;;;;;10.04;68.71;102294.92;1722133;80;21118;-65
2021/10/07 07:19:02;;;;;;;23.15;5.05;;;;;;;10.08;68.33;102277.52;1722801;80;21105;-66
2021/10/07 07:21:32;;;;;;;13.22;4.00;;;;;;;10.08;68.14;102268.13;1722445;80;21039;-64
2021/10/07 07:24:00;;;;;;;14.65;4.50;;;;;;;10.07;68.05;102291.81;1720648;80;21108;-65
2021/10/07 07:26:27;;;;;;;23.65;4.75;;;;;;;10.02;68.38;102268.59;1719370;80;21105;-65
2021/10/07 07:28:55;;;;;;;21.02;4.40;;;;;;;9.97;68.27;102288.31;1717268;81;21091;-64
2021/10/07 07:31:22;;;;;;;26.10;5.08;;;;;;;9.91;68.60;102282.55;1717416;82;21050;-65
2021/10/07 07:33:49;;;;;;;23.83;5.22;;;;;;;9.89;68.83;102284.34;1732845;80;21090;-64
2021/10/07 07:36:18;;;;;;;18.27;4.50;;;;;;;9.90;69.86;102259.33;1720711;81;21481;-63
2021/10/07 07:38:46;;;;;;;18.05;4.65;;;;;;;9.99;71.27;102272.64;1725855;81;21149;-64
2021/10/07 07:41:13;;;;;;;15.08;4.83;;;;;;;10.04;70.16;102259.22;1727728;81;21125;-65
2021/10/07 07:43:44;;;;;;;13.50;4.28;;;;;;;10.06;70.19;102283.30;1728697;82;21117;-63
2021/10/07 07:46:11;;;;;;;22.37;4.28;;;;;;;10.06;70.41;102285.98;1721544;82;21652;-64
2021/10/07 07:48:38;;;;;;;21.87;5.62;;;;;;;10.03;69.69;102266.34;1727068;81;21475;-65
2021/10/07 07:51:08;;;;;;;22.80;4.70;;;;;;;10.01;70.37;102289.59;1718902;81;21645;-65
2021/10/07 07:53:35;;;;;;;19.25;4.45;;;;;;;10.02;70.05;102269.93;1721494;81;21222;-65
2021/10/07 07:56:03;;;;;;;21.50;4.12;;;;;;;10.08;70.84;102261.43;1722941;81;21684;-65
2021/10/07 07:58:32;;;;;;;20.85;4.92;;;;;;;10.14;70.29;102269.41;1701706;82;20901;-57
2021/10/07 08:00:59;;;;;;;21.17;5.22;;;;;;;10.12;71.18;102308.27;1702407;82;21852;-56
2021/10/07 08:03:27;;;;;;;17.90;4.75;;;;;;;10.17;71.31;102262.67;1715167;81;21004;-56
2021/10/07 08:05:55;;;;;;;27.90;5.08;;;;;;;10.25;70.82;102267.50;1719523;81;21058;-56
2021/10/07 08:08:22;;;;;;;15.83;5.00;;;;;;;10.32;69.92;102250.48;1717289;82;21115;-56
2021/10/07 08:10:49;;;;;;;17.37;4.45;;;;;;;10.39;71.32;102269.17;1715391;82;21099;-56
2021/10/07 08:13:16;;;;;;;12.93;3.83;;;;;;;10.37;70.87;102289.75;1703883;82;21500;-56
2021/10/07 08:15:44;;;;;;;20.80;5.55;;;;;;;10.33;71.34;102279.50;1722548;80;21110;-56
2021/10/07 08:18:13;;;;;;;21.60;5.03;;;;;;;10.36;71.20;102274.57;1713761;81;21056;-57
2021/10/07 08:20:40;;;;;;;12.90;4.25;;;;;;;10.43;70.16;102278.55;1713589;81;21638;-57
2021/10/07 08:23:11;;;;;;;15.95;4.37;;;;;;;10.47;69.62;102275.38;1712154;81;21027;-57
2021/10/07 08:25:39;;;;;;;18.50;4.55;;;;;;;10.47;70.19;102282.08;1727579;81;21516;-57
2021/10/07 08:28:07;;;;;;;19.15;4.42;;;;;;;10.49;70.18;102274.90;1722859;81;21052;-57
2021/10/07 08:30:35;;;;;;;17.12;4.28;;;;;;;10.57;69.93;102289.14;1731144;81;21043;-57
2021/10/07 08:33:03;;;;;;;15.53;4.37;;;;;;;10.67;69.77;102281.88;1724723;81;21462;-57
2021/10/07 08:35:32;;;;;;;16.82;4.40;;;;;;;10.75;69.34;102278.66;1727324;81;21031;-56
2021/10/07 08:37:59;;;;;;;17.23;4.50;;;;;;;10.86;68.53;102285.23;1718000;82;21132;-55
2021/10/07 08:40:26;;;;;;;11.45;3.70;;;;;;;10.93;68.93;102342.86;1713695;82;21114;-57
2021/10/07 08:42:53;;;;;;;16.60;4.03;;;;;;;10.88;68.45;102276.71;1718024;81;21151;-57
2021/10/07 08:45:20;;;;;;;19.02;4.30;;;;;;;10.82;68.99;102274.11;1721816;81;21060;-56
2021/10/07 08:47:49;;;;;;;15.18;3.55;;;;;;;10.85;68.38;102279.44;1728856;81;21003;-56
2021/10/07 08:50:18;;;;;;;19.27;4.25;;;;;;;10.86;69.18;102282.55;1724139;81;21879;-57
2021/10/07 08:52:45;;;;;;;13.18;3.92;;;;;;;10.88;69.25;102287.45;1732153;81;21031;-57
2021/10/07 08:55:12;;;;;;;15.32;4.22;;;;;;;10.93;68.85;102274.42;1727605;81;21480;-56
2021/10/07 08:57:39;;;;;;;18.27;5.00;;;;;;;10.98;70.00;102284.67;1731985;81;21445;-66
2021/10/07 09:00:08;;;;;;;20.45;3.87;;;;;;;11.03;70.35;102274.29;1729318;81;21053;-66
2021/10/07 09:02:35;;;;;;;14.40;3.30;;;;;;;11.10;69.49;102314.03;1713844;82;21126;-67
2021/10/07 09:05:19;;;;;;;28.17;4.25;;;;;;;11.16;69.53;102280.86;1723455;81;21850;-65
2021/10/07 09:08:02;;;;;;;23.38;3.98;;;;;;;11.16;68.79;102309.05;1718241;81;20993;-65
2021/10/07 09:10:55;;;;;;;21.23;4.10;;;;;;;11.10;69.32;102293.90;1718259;81;21085;-66
2021/10/07 09:13:22;;;;;;;18.62;4.05;;;;;;;11.05;68.76;102294.41;1718519;81;21658;-65
2021/10/07 09:15:56;;;;;;;16.27;4.03;;;;;;;11.00;68.61;102316.41;1717503;81;21873;-65
2021/10/07 09:18:25;;;;;;;16.30;4.00;;;;;;;10.96;68.90;102305.27;1714298;81;21068;-64
2021/10/07 09:20:53;;;;;;;11.88;3.50;;;;;;;10.94;68.92;102315.11;1718049;81;21126;-65
2021/10/07 09:23:30;;;;;;;17.77;3.85;;;;;;;10.94;69.19;102304.37;1718653;81;21590;-66
2021/10/07 09:26:13;;;;;;;20.97;3.85;;;;;;;10.94;68.19;102327.19;1723319;81;20987;-65
2021/10/07 09:28:57;;;;;;;18.10;4.20;;;;;;;10.95;67.22;102304.84;1718051;81;21091;-66
2021/10/07 09:31:29;;;;;;;21.33;4.37;;;;;;;11.01;66.68;102320.86;1708305;81;21090;-65
2021/10/07 09:33:59;;;;;;;16.32;4.55;;;;;;;11.00;66.27;102302.98;1718265;82;21102;-65
2021/10/07 09:36:26;;;;;;;19.57;4.00;;;;;;;10.98;65.82;102345.06;1711951;82;21587;-65
2021/10/07 09:38:54;;;;;;;14.60;4.28;;;;;;;10.97;65.58;102297.66;1714581;82;21043;-67
2021/10/07 09:41:30;;;;;;;11.00;3.70;;;;;;;10.93;65.77;102302.59;1710736;82;21167;-65
2021/10/07 09:44:07;;;;;;;16.50;4.08;;;;;;;10.91;65.03;102316.48;1687048;83;21119;-66
2021/10/07 09:46:50;;;;;;;17.45;3.62;;;;;;;10.89;65.63;102303.98;1686726;83;21063;-66
2021/10/07 09:49:34;;;;;;;13.95;3.65;;;;;;;10.91;66.16;102300.39;1704996;82;21585;-67
2021/10/07 09:52:02;;;;;;;16.50;3.83;;;;;;;10.93;66.03;102318.70;1708426;82;21138;-67
2021/10/07 09:54:38;;;;;;;10.18;3.70;;;;;;;10.87;64.80;102327.73;1702288;83;21164;-67
2021/10/07 09:57:05;;;;;;;16.87;3.70;;;;;;;10.84;64.30;102317.04;1714996;81;21085;-64
2021/10/07 09:59:33;;;;;;;13.18;3.77;;;;;;;10.83;65.10;102313.45;1717189;82;21067;-67
2021/10/07 10:02:00;;;;;;;20.17;4.20;;;;;;;10.85;64.53;102302.24;1708263;81;21110;-67
2021/10/07 10:04:31;;;;;;;18.45;4.05;;;;;;;10.83;64.18;102308.09;1711008;81;21099;-66
2021/10/07 10:07:05;;;;;;;25.30;4.50;;;;;;;10.80;64.78;102290.68;1710271;81;21044;-66
2021/10/07 10:09:32;;;;;;;16.82;4.10;;;;;;;10.81;64.89;102332.70;1705572;83;21540;-56
2021/10/07 10:12:01;;;;;;;17.73;4.22;;;;;;;10.86;64.40;102295.97;1704305;82;21120;-59
2021/10/07 10:14:28;;;;;;;15.70;3.67;;;;;;;10.94;64.58;102294.55;1707044;81;21096;-59
2021/10/07 10:16:55;;;;;;;15.00;4.78;;;;;;;11.00;62.67;102308.35;1705977;82;20996;-57
2021/10/07 10:19:22;;;;;;;15.00;3.65;;;;;;;11.02;62.97;102297.14;1702560;83;21146;-57
2021/10/07 10:21:54;;;;;;;17.62;3.75;;;;;;;11.02;61.41;102303.85;1706452;83;21497;-58
2021/10/07 10:24:32;;;;;;;17.05;3.98;;;;;;;11.03;62.60;102268.05;1705174;81;21215;-67
2021/10/07 10:27:02;;;;;;;16.27;3.47;;;;;;;11.10;61.07;102297.92;1704783;81;21151;-65
2021/10/07 10:29:33;;;;;;;13.85;3.45;;;;;;;11.16;60.14;102283.11;1699874;83;21401;-67
2021/10/07 10:31:58;;;;;;;12.90;3.50;;;;;;;11.16;60.49;102272.37;1710803;82;22246;-67
2021/10/07 10:37:23;;;;;;;17.67;3.15;;;;;;;11.18;59.05;102292.02;1710808;80;21088;-54
2021/10/07 10:39:50;;;;;;;9.98;3.87;;;;;;;11.17;60.09;102300.08;1732751;80;21119;-54
2021/10/07 10:42:26;;;;;;;16.12;2.75;;;;;;;11.22;61.32;102263.79;1738825;81;21617;-54
2021/10/07 10:45:03;;;;;;;21.20;3.80;;;;;;;11.28;60.57;102279.81;1744042;81;21148;-54
2021/10/07 10:47:41;;;;;;;16.55;3.20;;;;;;;11.32;60.46;102270.80;1742226;80;21054;-54
2021/10/07 10:50:13;;;;;;;13.98;3.47;;;;;;;11.40;60.91;102266.23;1737817;80;21062;-54
2021/10/07 10:52:53;;;;;;;9.90;3.25;;;;;;;11.50;60.16;102270.11;1740606;80;21078;-55
2021/10/07 10:55:27;;;;;;;14.05;3.12;;;;;;;11.55;60.91;102244.96;1744411;80;21074;-54
2021/10/07 10:58:03;;;;;;;16.17;3.12;;;;;;;11.68;59.67;102255.06;1724493;80;21499;-55
2021/10/07 11:00:36;;;;;;;19.45;3.98;;;;;;;11.74;58.70;102277.80;1740317;80;21071;-56
2021/10/07 11:03:15;;;;;;;14.83;3.52;;;;;;;11.70;59.63;102263.98;1733699;80;21063;-55
2021/10/07 11:06:05;;;;;;;13.90;3.10;;;;;;;11.70;59.14;102237.11;1738274;80;21075;-55
2021/10/07 11:08:47;;;;;;;12.75;3.27;;;;;;;11.77;59.01;102245.06;1736021;80;21051;-56
2021/10/07 11:11:26;;;;;;;15.68;3.35;;;;;;;11.85;59.94;102241.82;1745576;80;21448;-54
2021/10/07 11:13:54;;;;;;;9.85;3.08;;;;;;;11.92;59.37;102246.17;1734838;81;21047;-55
2021/10/07 11:16:22;;;;;;;16.80;3.47;;;;;;;11.91;57.90;102252.46;1733400;80;21572;-55
2021/10/07 11:18:50;;;;;;;11.65;3.33;;;;;;;11.87;58.05;102270.42;1728848;80;21050;-55
2021/10/07 11:21:20;;;;;;;17.98;3.58;;;;;;;11.85;58.92;102245.38;1732394;80;21059;-55
2021/10/07 11:23:50;;;;;;;19.98;3.37;;;;;;;11.87;58.81;102201.02;1736919;80;21126;-55
2021/10/07 11:26:19;;;;;;;19.80;4.12;;;;;;;11.96;59.16;102207.56;1733250;78;21421;-55
2021/10/07 11:28:48;;;;;;;20.50;3.55;;;;;;;12.03;59.11;102206.56;1729499;80;21067;-55
2021/10/07 11:31:22;;;;;;;22.50;4.87;;;;;;;12.11;57.96;102205.56;1731825;80;21685;-55
2021/10/07 11:33:52;;;;;;;16.57;4.03;;;;;;;12.15;58.69;102201.42;1724844;80;21027;-56
2021/10/07 11:36:24;;;;;;;18.00;3.75;;;;;;;12.18;57.59;102224.69;1735433;80;21616;-55